Hellhole Canyon (1030) Station Data

Red Flag Warning: No
Fire Weather Zone: 250
SDGE Region: North East
Lat/Lon: 33.224/-116.924

Observations

Time Wind Speed/Gust Temp(F) RH Fuel Moist Fuel Temp(F) Dewpt(F) Tmax(F) Tmin(F) Accum Precip 10-min Precip SL Press(mb)
4/26 2:50am 49 5 G 7 53° 77% - - 47° 55.8° 50.8° - - 1013.0
4/26 2:40am 59 4 G 6 53° 79% - - 46° 55.8° 50.8° - - 1013.0
4/26 2:30am 80 3 G 4 52° 79% - - 46° 55.8° 50.8° - - 1013.0
4/26 2:20am 13 3 G 5 54° 75% - - 46° 55.8° 50.8° - - 1013.0
4/26 2:10am 45 4 G 6 53° 78% - - 46° 55.8° 50.8° - - 1014.0
4/26 2:00am 78 3 G 4 53° 78% - - 46° 55.8° 50.8° - - 1014.0
4/26 1:50am 68 2 G 3 52° 79% - - 46° 55.8° 50.8° - - 1014.0
4/26 1:40am 41 3 G 4 55° 72% - - 46° 55.8° 52.4° - - 1014.0
4/26 1:30am 29 4 G 5 54° 73% - - 46° 55.7° 52.7° - - 1014.0
4/26 1:20am 43 4 G 5 54° 74% - - 46° 55.7° 52.7° - - 1014.0
4/26 1:10am 63 2 G 3 54° 73% - - 46° 55.7° 52.8° - - 1014.0
4/26 1:00am 344 0 G 1 55° 71% - - 46° 55.7° 53.2° - - 1014.0
4/26 12:50am 37 1 G 3 55° 71% - - 46° 55.4° 53.2° - - 1014.0
4/26 12:40am 52 1 G 3 55° 72% - - 46° 55.3° 53.2° - - 1014.0
4/26 12:30am 59 1 G 2 54° 73% - - 46° 55.2° 53.2° - - 1014.0
4/26 12:20am 71 0 G 2 54° 72% - - 45° 55.2° 53.3° - - 1014.0
4/26 12:10am 94 1 G 2 54° 71% - - 45° 55.2° 53.8° - - 1014.0
4/26 12:00am 248 0 G 2 56° 68% - - 45° 65° 51.2° - - 1014.0
4/25 11:50pm 40 2 G 4 56° 67% - - 46° 65° 51.2° - - 1014.0
4/25 11:40pm 53 2 G 4 55° 71% - - 46° 65° 51.2° - - 1014.0
4/25 11:30pm 71 2 G 4 55° 73% - - 46° 65° 51.2° - - 1014.0
4/25 11:20pm 71 3 G 5 55° 72% - - 46° 65° 51.2° - - 1014.0
4/25 11:10pm 80 1 G 3 55° 73% - - 46° 65° 51.2° - - 1014.0
4/25 11:00pm 71 2 G 3 55° 73% - - 46° 65° 51.2° - - 1015.0
4/25 10:50pm 61 2 G 3 55° 71% - - 46° 65° 51.2° - - 1015.0
4/25 10:40pm 46 3 G 5 55° 70% - - 46° 65° 51.2° - - 1015.0
4/25 10:30pm 63 4 G 5 54° 73% - - 46° 65° 51.2° - - 1015.0
4/25 10:20pm 70 3 G 4 54° 72% - - 45° 65° 51.2° - - 1015.0
4/25 10:10pm 52 4 G 5 55° 68% - - 45° 65° 51.2° - - 1015.0
4/25 10:00pm 48 4 G 5 55° 67% - - 45° 65° 51.2° - - 1015.0
4/25 9:50pm 52 4 G 5 55° 69% - - 45° 65° 51.2° - - 1015.0
4/25 9:40pm 54 4 G 5 55° 69% - - 45° 65° 51.2° - - 1015.0
4/25 9:30pm 49 2 G 4 55° 70% - - 45° 65° 51.2° - - 1015.0
4/25 9:20pm 80 2 G 3 54° 71% - - 45° 65° 51.2° - - 1015.0
4/25 9:10pm 28 1 G 3 55° 69% - - 45° 65° 51.2° - - 1015.0
4/25 9:00pm 57 2 G 4 54° 72% - - 45° 65° 51.2° - - 1015.0
4/25 8:50pm 81 2 G 4 54° 72% - - 45° 65° 51.2° - - 1015.0
4/25 8:40pm 85 1 G 3 54° 71% - - 45° 65° 51.2° - - 1015.0
4/25 8:30pm 115 1 G 2 54° 70% - - 45° 65° 51.2° - - 1014.0
4/25 8:20pm 102 2 G 2 55° 69% - - 45° 65° 51.2° - - 1014.0
4/25 8:10pm 74 2 G 4 55° 70% - - 45° 65° 51.2° - - 1014.0
4/25 8:00pm 79 1 G 2 56° 70% - - 46° 65° 51.2° - - 1014.0
4/25 7:50pm 92 2 G 3 56° 69% - - 46° 65° 51.2° - - 1013.0
4/25 7:40pm 308 1 G 2 57° 66% - - 45° 65° 51.2° - - 1013.0
4/25 7:30pm 285 1 G 3 57° 67% - - 46° 65° 51.2° - - 1013.0
4/25 7:20pm 296 3 G 5 57° 67% - - 46° 65° 51.2° - - 1013.0
4/25 7:10pm 291 5 G 8 57° 67% - - 46° 65° 51.2° - - 1013.0
4/25 7:00pm 290 6 G 8 58° 66% - - 47° 65° 51.2° - - 1013.0
4/25 6:50pm 280 8 G 11 58° 65% - - 47° 65° 51.2° - - 1013.0
4/25 6:40pm 282 7 G 12 59° 66% - - 48° 65° 51.2° - - 1013.0
4/25 6:30pm 271 8 G 11 60° 66% - - 48° 65° 51.2° - - 1012.0
4/25 6:20pm 287 9 G 12 60° 66% - - 48° 65° 51.2° - - 1013.0
4/25 6:10pm 284 8 G 12 60° 65% - - 49° 65° 51.2° - - 1012.0
4/25 6:00pm 282 8 G 12 61° 65% - - 49° 65° 51.2° - - 1012.0
4/25 5:50pm 288 6 G 9 61° 64% - - 49° 65° 51.2° - - 1012.0
4/25 5:40pm 292 7 G 10 61° 64% - - 49° 65° 51.2° - - 1012.0
4/25 5:30pm 279 7 G 13 61° 63% - - 49° 65° 51.2° - - 1012.0
4/25 5:20pm 279 8 G 13 62° 63% - - 49° 65° 51.2° - - 1012.0
4/25 5:10pm 310 7 G 12 61° 63% - - 49° 65° 51.2° - - 1012.0
4/25 5:00pm 282 7 G 14 62° 63% - - 49° 65° 51.2° - - 1012.0
4/25 4:50pm 262 7 G 11 63° 61% - - 49° 65° 51.2° - - 1012.0
4/25 4:40pm 276 8 G 14 62° 62% - - 49° 65° 51.2° - - 1012.0
4/25 4:30pm 283 8 G 15 62° 62% - - 49° 65° 51.2° - - 1012.0
4/25 4:20pm 256 9 G 15 62° 63% - - 49° 65° 51.2° - - 1012.0
4/25 4:10pm 258 9 G 14 63° 61% - - 49° 65° 51.2° - - 1012.0
4/25 4:00pm 265 8 G 13 63° 61% - - 49° 65° 51.2° - - 1012.0
4/25 3:50pm 268 8 G 15 63° 61% - - 49° 65° 51.2° - - 1012.0
4/25 3:40pm 268 10 G 13 62° 62% - - 49° 65° 51.2° - - 1012.0
4/25 3:30pm 269 8 G 12 62° 63% - - 49° 65° 51.2° - - 1012.0
4/25 3:20pm 273 9 G 14 61° 64% - - 49° 65° 51.2° - - 1013.0
4/25 3:10pm 252 9 G 16 62° 63% - - 49° 65° 51.2° - - 1012.0
4/25 3:00pm 255 10 G 16 61° 64% - - 49° 65° 51.2° - - 1012.0
4/25 2:50pm 255 7 G 17 62° 62% - - 49° 65° 51.2° - - 1012.0
4/25 2:40pm 231 5 G 10 62° 60% - - 48° 65° 51.2° - - 1012.0
4/25 2:30pm 286 7 G 13 62° 62% - - 48° 65° 51.2° - - 1012.0
4/25 2:20pm 278 7 G 12 62° 61% - - 49° 65° 51.2° - - 1013.0
4/25 2:10pm 294 9 G 14 63° 60% - - 48° 65° 51.2° - - 1013.0
4/25 2:00pm 253 5 G 12 63° 59% - - 49° 65° 51.2° - - 1013.0
4/25 1:50pm 287 8 G 16 62° 61% - - 49° 63.5° 51.2° - - 1013.0
4/25 1:40pm 286 7 G 13 62° 60% - - 48° 63.5° 51.2° - - 1013.0
4/25 1:30pm 267 8 G 14 63° 60% - - 49° 63.5° 51.2° - - 1013.0
4/25 1:20pm 248 4 G 9 62° 60% - - 48° 63.5° 51.2° - - 1013.0
4/25 1:10pm 294 7 G 14 62° 61% - - 49° 63.5° 51.2° - - 1013.0
4/25 1:00pm 283 8 G 14 62° 64% - - 50° 63.5° 51.2° - - 1013.0
4/25 12:50pm 277 8 G 14 61° 64% - - 49° 63.5° 51.2° - - 1013.0
4/25 12:40pm 299 8 G 13 62° 61% - - 48° 63.5° 51.2° - - 1013.0
4/25 12:30pm 269 5 G 9 62° 58% - - 47° 63.5° 51.2° - - 1013.0
4/25 12:20pm 301 6 G 11 62° 58% - - 48° 63.5° 51.2° - - 1013.0
4/25 12:10pm 289 7 G 15 62° 57% - - 46° 62.5° 51.2° - - 1014.0
4/25 12:00pm 259 7 G 14 61° 59% - - 47° 62.4° 51.2° - - 1013.0
4/25 11:50am 259 8 G 14 61° 60% - - 47° 62.2° 51.2° - - 1014.0
4/25 11:40am 286 4 G 9 61° 58% - - 46° 61.7° 51.2° - - 1014.0
4/25 11:30am 266 7 G 15 60° 60% - - 46° 61° 51.2° - - 1014.0
4/25 11:20am 273 6 G 11 59° 63% - - 47° 61° 51.2° - - 1014.0
4/25 11:10am 235 4 G 12 60° 63% - - 47° 61° 51.2° - - 1014.0
4/25 11:00am 260 7 G 11 59° 65% - - 47° 60.7° 51.2° - - 1014.0
4/25 10:50am 286 3 G 10 59° 64% - - 47° 60.7° 51.2° - - 1014.0
4/25 10:40am 259 3 G 6 58° 66% - - 47° 59.4° 51.2° - - 1014.0
4/25 10:30am 272 6 G 9 57° 69% - - 47° 58.2° 51.2° - - 1014.0
4/25 10:20am 220 4 G 7 57° 72% - - 48° 58.2° 51.2° - - 1014.0
4/25 10:10am 261 3 G 9 57° 71% - - 48° 58.2° 51.2° - - 1014.0
4/25 10:00am 261 4 G 7 56° 72% - - 47° 58.2° 51.2° - - 1014.0
4/25 9:50am 331 2 G 5 56° 73% - - 48° 58.2° 51.2° - - 1014.0
4/25 9:40am 238 4 G 7 56° 74% - - 47° 58.2° 51.2° - - 1014.0
4/25 9:30am 213 3 G 7 57° 73% - - 48° 58.2° 51.2° - - 1014.0
4/25 9:20am 204 3 G 8 57° 76% - - 50° 58.2° 51.2° - - 1014.0
4/25 9:10am 225 6 G 10 56° 80% - - 50° 56.6° 51.2° - - 1014.0
4/25 9:00am 224 5 G 9 55° 83% - - 50° 56.5° 51.2° - - 1014.0
4/25 8:50am 232 6 G 9 54° 85% - - 50° 54.9° 51.2° - - 1014.0
4/25 8:40am 233 7 G 10 54° 87% - - 50° 54.5° 51.2° - - 1014.0
4/25 8:30am 217 5 G 9 54° 87% - - 50° 54.5° 51.2° - - 1014.0
4/25 8:20am 199 4 G 6 53° 89% - - 50° 53.6° 51.2° - - 1014.0
4/25 8:10am 204 3 G 6 53° 89% - - 50° 53.4° 51.2° - - 1014.0
4/25 8:00am 163 2 G 4 53° 90% - - 50° 53.1° 51.2° - - 1014.0
4/25 7:50am 184 2 G 4 52° 90% - - 50° 52.9° 51.2° - - 1014.0
4/25 7:40am 116 2 G 4 52° 91% - - 50° 52.9° 51.2° - - 1014.0
4/25 7:30am 157 1 G 3 52° 91% - - 50° 52.9° 51.2° - - 1014.0
4/25 7:20am 197 1 G 3 52° 91% - - 49° 52.9° 51.2° - - 1013.0
4/25 7:10am 165 1 G 4 52° 91% - - 49° 52.9° 51.2° - - 1013.0
4/25 7:00am 149 2 G 4 52° 91% - - 49° 52.9° 51.2° - - 1013.0
4/25 6:50am 119 2 G 5 52° 91% - - 49° 52.9° 51.2° - - 1013.0
4/25 6:40am 124 3 G 4 52° 91% - - 49° 52.9° 51.2° - - 1013.0
4/25 6:30am 153 2 G 3 52° 91% - - 49° 52.9° 51.2° - - 1013.0
4/25 6:20am 181 2 G 4 52° 91% - - 49° 52.9° 51.2° - - 1013.0
4/25 6:10am 174 2 G 4 52° 91% - - 49° 52.9° 51.2° - - 1013.0
4/25 6:00am 139 2 G 5 52° 91% - - 49° 52.9° 51.2° - - 1013.0
4/25 5:50am 119 1 G 2 52° 91% - - 49° 52.9° 51.2° - - 1013.0
4/25 5:40am 103 2 G 5 52° 91% - - 49° 52.9° 51.2° - - 1013.0
4/25 5:30am 133 2 G 5 52° 90% - - 49° 52.9° 51.2° - - 1013.0
4/25 5:20am 163 3 G 5 52° 91% - - 49° 52.9° 51.2° - - 1013.0
4/25 5:10am 120 2 G 5 52° 91% - - 49° 52.9° 51.2° - - 1013.0
4/25 5:00am 142 2 G 5 52° 91% - - 49° 52.9° 51.2° - - 1013.0
4/25 4:50am 164 4 G 6 52° 92% - - 49° 52.9° 51.2° - - 1013.0
4/25 4:40am 161 4 G 7 52° 92% - - 49° 52.9° 51.2° - - 1013.0
4/25 4:30am 158 4 G 6 52° 91% - - 49° 52.9° 51.2° - - 1012.0
4/25 4:20am 179 4 G 7 52° 91% - - 49° 52.9° 51.2° - - 1013.0
4/25 4:10am 181 5 G 10 52° 92% - - 49° 52.9° 51.2° - - 1012.0
4/25 4:00am 164 4 G 8 52° 92% - - 49° 52.9° 51.2° - - 1012.0
4/25 3:50am 188 4 G 9 52° 93% - - 50° 52.9° 51.2° - - 1012.0
4/25 3:40am 210 6 G 10 52° 94% - - 50° 52.9° 51.2° - - 1012.0
4/25 3:30am 194 4 G 9 52° 94% - - 50° 52.9° 51.3° - - 1012.0
4/25 3:20am 198 4 G 9 52° 93% - - 50° 52.9° 51.3° - - 1013.0
4/25 3:10am 202 4 G 8 52° 93% - - 50° 52.9° 51.3° - - 1013.0
4/25 3:00am 206 4 G 7 52° 92% - - 50° 52.9° 51.3° - - 1013.0
4/25 2:50am 219 6 G 10 52° 92% - - 49° 52.9° 51.3° - - 1013.0
4/25 2:40am 221 3 G 7 52° 92% - - 49° 52.9° 51.3° - - 1013.0
4/25 2:30am 174 2 G 6 52° 92% - - 49° 52.9° 51.3° - - 1013.0
4/25 2:20am 268 2 G 5 52° 92% - - 49° 52.9° 51.3° - - 1013.0
4/25 2:10am 288 2 G 7 52° 91% - - 49° 52.9° 51.3° - - 1013.0
4/25 2:00am 211 4 G 9 52° 90% - - 49° 52.9° 51.3° - - 1013.0
4/25 1:50am 203 3 G 8 52° 89% - - 49° 52.9° 51.6° - - 1013.0
4/25 1:40am 200 4 G 8 52° 89% - - 49° 52.9° 51.8° - - 1013.0
4/25 1:30am 213 6 G 11 52° 90% - - 49° 52.9° 51.8° - - 1013.0
4/25 1:20am 189 4 G 10 52° 92% - - 50° 52.9° 51.8° - - 1013.0
4/25 1:10am 186 3 G 5 52° 91% - - 50° 52.9° 51.8° - - 1013.0
4/25 1:00am 156 4 G 6 52° 90% - - 50° 52.9° 51.8° - - 1013.0
4/25 12:50am 176 3 G 5 52° 90% - - 50° 52.9° 51.8° - - 1013.0
4/25 12:40am 165 3 G 6 52° 90% - - 50° 52.8° 51.8° - - 1013.0
4/25 12:30am 160 4 G 8 52° 90% - - 50° 52.8° 51.8° - - 1013.0
4/25 12:20am 147 3 G 6 52° 90% - - 50° 52.8° 51.8° - - 1013.0
4/25 12:10am 187 2 G 4 52° 91% - - 50° 52.8° 51.8° - - 1013.0
4/25 12:00am 166 4 G 7 52° 91% - - 50° 67° 49.5° - - 1013.0
4/24 11:50pm 168 5 G 8 52° 91% - - 50° 67° 49.5° - - 1013.0
4/24 11:40pm 165 5 G 9 53° 91% - - 50° 67° 49.5° - - 1013.0
4/24 11:30pm 199 3 G 7 53° 91% - - 50° 67° 49.5° - - 1014.0
4/24 11:20pm 233 2 G 5 53° 91% - - 50° 67° 49.5° - - 1014.0
4/24 11:10pm 264 2 G 4 53° 91% - - 50° 67° 49.5° - - 1014.0
4/24 11:00pm 257 2 G 4 53° 90% - - 50° 67° 49.5° - - 1014.0
4/24 10:50pm 249 1 G 2 53° 90% - - 50° 67° 49.5° - - 1014.0
4/24 10:40pm 145 2 G 3 53° 89% - - 50° 67° 49.5° - - 1014.0
4/24 10:30pm 130 2 G 4 53° 88% - - 50° 67° 49.5° - - 1014.0
4/24 10:20pm 136 3 G 4 53° 88% - - 50° 67° 49.5° - - 1013.0
4/24 10:10pm 137 3 G 5 53° 86% - - 49° 67° 49.5° - - 1013.0
4/24 10:00pm 155 5 G 8 54° 86% - - 49° 67° 49.5° - - 1013.0
4/24 9:50pm 178 4 G 7 54° 86% - - 50° 67° 49.5° - - 1014.0
4/24 9:40pm 176 4 G 8 54° 87% - - 50° 67° 49.5° - - 1013.0
4/24 9:30pm 155 4 G 8 54° 86% - - 50° 67° 49.5° - - 1014.0
4/24 9:20pm 155 4 G 6 54° 85% - - 50° 67° 49.5° - - 1014.0
4/24 9:10pm 168 5 G 7 54° 86% - - 50° 67° 49.5° - - 1014.0
4/24 9:00pm 164 5 G 8 54° 87% - - 50° 67° 49.5° - - 1014.0
4/24 8:50pm 178 5 G 8 54° 86% - - 51° 67° 49.5° - - 1014.0
4/24 8:40pm 163 5 G 8 55° 86% - - 51° 67° 49.5° - - 1014.0
4/24 8:30pm 162 5 G 8 55° 86% - - 51° 67° 49.5° - - 1013.0
4/24 8:20pm 165 4 G 7 55° 85% - - 51° 67° 49.5° - - 1013.0
4/24 8:10pm 197 4 G 7 55° 84% - - 51° 67° 49.5° - - 1013.0
4/24 8:00pm 201 3 G 5 55° 86% - - 51° 67° 49.5° - - 1013.0
4/24 7:50pm 204 3 G 6 55° 86% - - 51° 67° 49.5° - - 1013.0
4/24 7:40pm 200 3 G 6 56° 85% - - 51° 67° 49.5° - - 1013.0
4/24 7:30pm 226 6 G 11 55° 85% - - 51° 67° 49.5° - - 1013.0
4/24 7:20pm 218 6 G 10 56° 85% - - 51° 67° 49.5° - - 1013.0
4/24 7:10pm 212 6 G 11 56° 85% - - 51° 67° 49.5° - - 1013.0
4/24 7:00pm 220 7 G 10 57° 83% - - 51° 67° 49.5° - - 1013.0
4/24 6:50pm 216 6 G 9 57° 82% - - 51° 67° 49.5° - - 1013.0
4/24 6:40pm 222 8 G 12 57° 81% - - 51° 67° 49.5° - - 1013.0
4/24 6:30pm 215 7 G 11 58° 79% - - 52° 67° 49.5° - - 1013.0
4/24 6:20pm 224 7 G 12 59° 77% - - 51° 67° 49.5° - - 1013.0
4/24 6:10pm 232 8 G 12 59° 76% - - 51° 67° 49.5° - - 1013.0
4/24 6:00pm 218 8 G 13 59° 75% - - 51° 67° 49.5° - - 1012.0